Aviation Digital Data Service (ADDS)

Output produced by METARs form (1957 UTC 25 February 2018)
found at http://aviationweather.gov/adds/metars/
 
KBOS 251954Z 09018KT 3SM -RA BR SCT004 OVC008 04/03 A3001 RMK AO2 SFC VIS 4 PRESFR SLP160 P0006 T00390033
KBOS 251733Z 2518/2624 11012G24KT 4SM -RA BR OVC010 
     FM252100 06007KT 6SM BR VCSH OVC008 
     FM252300 05006KT 2SM BR OVC008 
     FM260600 32007KT P6SM BKN040 
     FM261300 28007G17KT P6SM BKN200
       
KLGA 251951Z 04016G22KT 2SM BR OVC006 05/03 A2996 RMK AO2 SFC VIS 4 RAE05 SLP146 P0000 T00500033
KLGA 251740Z 2518/2624 06013KT 3SM -RA BR OVC005 
     FM252000 04008KT 1SM BR VCSH OVC008 
     FM252100 VRB04KT 1SM BR OVC010 
     FM260000 VRB03KT 1SM BR OVC090 
     FM260400 31005KT 4SM BR BKN150 
     FM260700 31005KT P6SM BKN150 
     FM261700 30009KT P6SM FEW250 
     FM261900 29010G19KT P6SM FEW250
       
KJFK 251951Z 01010KT 6SM BR BKN006 OVC010 05/05 A2996 RMK AO2 RAB1853E18 SLP143 P0000 T00500050
KJFK 251740Z 2518/2624 08010KT 3SM -RA BR OVC007 
     FM252000 03005KT 1 1/2SM BR VCSH OVC009 
     FM252100 VRB03KT 1SM BR OVC010 
     FM260000 VRB03KT 1SM BR OVC090 
     FM260400 30003KT 3SM BR OVC100 
     FM260700 31005KT P6SM BKN150 
     FM261200 33007KT P6SM BKN200 
     FM261700 29010KT P6SM FEW250 
     FM261900 28010G18KT P6SM FEW250
       
KEWR 251951Z 04010KT 8SM BKN007 OVC013 06/05 A2993 RMK AO2 RAE03 SLP135 P0000 T00610050 $
KEWR 251740Z 2518/2624 05009KT 3SM -RA BR OVC006 
     FM252000 VRB05KT 1SM BR VCSH OVC009 
     FM252100 VRB04KT 1SM BR OVC010 
     FM252300 VRB03KT 1SM BR OVC120 
     FM260400 VRB03KT 4SM BR OVC120 
     FM260700 VRB03KT P6SM OVC120 
     FM261300 31006KT P6SM SCT250 
     FM261800 28010G17KT P6SM FEW250
       
KPHL 251954Z 00000KT 10SM OVC007 08/07 A2996 RMK AO2 SLP145 T00830067 $
KPHL 251944Z 2520/2624 04007KT P6SM VCSH OVC008 
     FM252030 33006KT P6SM OVC011 
     FM252200 30004KT P6SM OVC020 
     FM252330 VRB03KT P6SM OVC035 
     TEMPO 2604/2607 BKN020 
     FM261200 31005KT P6SM BKN190 
     FM262000 28007KT P6SM SCT220
       
KBWI 251954Z 27004KT 10SM OVC007 09/09 A2996 RMK AO2 SLP147 T00940094
KBWI 251912Z 2519/2624 29003KT P6SM OVC007 
     FM252200 25009KT P6SM OVC150 
     FM260000 29006KT P6SM OVC250 
     FM261500 33006KT P6SM BKN100 
     FM261700 32005KT P6SM SCT110
       
KDCA 251952Z 00000KT 10SM OVC007 12/11 A2998 RMK AO2 SLP151 T01170106
KDCA 251912Z 2519/2624 00000KT P6SM OVC007 
     FM252100 24010KT P6SM OVC050 
     FM260000 30007KT P6SM OVC250 
     FM260800 34006KT P6SM OVC250 
     FM261800 33005KT P6SM SCT100
       
KIAD 251952Z 00000KT 3SM OVC006 11/11 A2995 RMK AO2 SFC VIS 10 SLP141 T01060106
KIAD 251912Z 2519/2624 22008KT 3SM BR OVC005 
     FM252000 23010KT 4SM BR OVC008 
     FM252100 25009KT P6SM OVC045 
     FM260000 30007KT P6SM OVC250 
     FM261300 34006KT P6SM OVC110 
     FM261600 33007KT P6SM SCT100
       
KCLT 251952Z 18006KT 10SM SCT070 OVC090 19/15 A3008 RMK AO2 RAE11 SLP179 P0000 T01890150
KCLT 251945Z 2520/2624 21004KT P6SM VCSH FEW012 OVC090 
     TEMPO 2521/2601 4SM -SHRA BR BKN012 
     FM260100 25004KT P6SM OVC060 
     FM260600 27004KT P6SM VCSH OVC060 
     FM261200 VRB02KT 4SM -SHRA BR OVC020
       
KATL 251952Z 15005KT 10SM OVC080 18/16 A3012 RMK AO2 SLP194 T01780156
KATL 251940Z 2520/2624 26007KT P6SM VCSH BKN040 OVC100 
     FM260000 VRB03KT 6SM BR VCSH OVC015 
     FM260500 03003KT 3SM -RA BR OVC009 
     FM260900 03004KT 2SM -RA BR OVC006 
     FM261500 04006KT P6SM VCSH OVC015 
     FM261800 34006KT P6SM BKN025
       
KTPA 251953Z 19008KT 10SM FEW038 28/19 A3012 RMK AO2 SLP199 T02830194
KTPA 251737Z 2518/2624 21008KT P6SM SCT040 
     FM260100 VRB03KT P6SM SCT060 
     FM261400 18005KT P6SM FEW025 
     FM261700 21008KT P6SM SCT040
       
KMCO 251953Z 19008KT 10SM SCT050 29/14 A3011 RMK AO2 SLP195 T02940144
KMCO 251742Z 2518/2624 19010KT P6SM SCT040 
     FM252200 13007KT P6SM SCT040 
     FM260200 VRB03KT P6SM FEW030 
     TEMPO 2611/2613 5SM BR 
     FM261400 22007KT P6SM SCT035
       
KMIA 251953Z 13012KT 10SM SCT032 28/19 A3013 RMK AO2 SLP204 T02780189
KMIA 251720Z 2518/2624 14010KT P6SM SCT035 SCT050 
     FM260000 VRB03KT P6SM FEW025 
     FM261500 15008KT P6SM SCT030 SCT050
       
KFLL 251953Z 13013KT 10SM FEW030 27/21 A3013 RMK AO2 SLP201 T02670206
KFLL 251720Z 2518/2624 14012KT P6SM SCT025 
     FM260100 VRB05KT P6SM FEW030 
     FM261400 15010KT P6SM FEW030 SCT050
       
KDTW 251953Z 23024G33KT 10SM BKN035 07/M02 A2991 RMK AO2 PK WND 25034/1924 SLP132 T00721017 $
KDTW 251953Z 2520/2624 24020G30KT P6SM BKN035 
     FM252100 24016G26KT P6SM SCT035 
     FM260000 25011KT P6SM SKC 
     FM260800 24005KT P6SM SKC 
     FM261600 27011KT P6SM SKC
       
KORD 251951Z 24019G27KT 10SM FEW040 06/M04 A2992 RMK AO2 PK WND 23028/1921 SLP137 T00611044 $
KORD 251720Z 2518/2624 25018G28KT P6SM FEW030 
     FM260100 24008KT P6SM FEW200 
     FM261200 22008KT P6SM SKC
       
KMDW 251953Z 26021G29KT 10SM FEW030 07/M06 A2994 RMK AO2 PK WND 25029/1948 SLP146 T00671056
KMDW 251720Z 2518/2624 25018G28KT P6SM SCT030 
     FM260100 24008KT P6SM FEW200 
     FM261200 22008KT P6SM SKC
       
KMSP 251953Z 25011KT 10SM OVC023 M03/M07 A2979 RMK AO2 SLP100 T10331072
KMSP 251732Z 2518/2624 25014G22KT P6SM BKN028 
     FM252200 25012KT P6SM FEW035 
     FM260200 23007KT P6SM SKC 
     FM260800 18006KT P6SM SKC
       
KMEM 251954Z 00000KT 10SM OVC150 12/02 A3011 RMK AO2 SLP196 T01220022 $
KMEM 251741Z 2518/2624 06004KT P6SM BKN150 
     FM260100 08003KT P6SM VCSH OVC025 
     FM261000 02004KT P6SM SCT025 
     FM261500 04007KT P6SM SCT030
       
KDFW 251953Z 19012KT 10SM FEW120 FEW200 19/07 A2998 RMK AO2 SLP148 T01940072 $
KDFW 251725Z 2518/2624 11005KT P6SM BKN100 
     FM260900 02004KT 5SM BR SCT012 
     TEMPO 2611/2615 2SM BR BKN008 
     FM261500 08005KT 5SM BR BKN012 
     FM261700 10007KT P6SM SCT250
       
KIAH 251953Z 02007KT 5SM -RA BR OVC005 16/15 A2994 RMK AO2 RAB11 SLP138 P0009 T01560150 $
KIAH 251740Z 2518/2624 04008KT P6SM VCTS SCT007 OVC020CB 
     TEMPO 2518/2520 3SM -RA OVC015 
     FM260000 34006KT 6SM BR VCSH OVC012 
     FM260500 01004KT 3SM BR OVC007 
     FM261500 02008KT P6SM OVC015 
     FM261900 05008KT P6SM SCT015
       
KDEN 251953Z 27017G24KT 10SM FEW080 FEW150 FEW220 03/M18 A2987 RMK AO2 PK WND 26027/1932 SLP129 ACSL OMTNS DSNT W-NW T00331178 $
KDEN 251732Z 2518/2624 26017G34KT P6SM FEW080 FEW120 
     FM260000 25013KT P6SM FEW100 FEW220 
     FM260200 21009KT P6SM SCT220 
     FM261400 VRB05KT P6SM SCT220 
     FM261800 02006KT P6SM FEW100 SCT220
       
KSLC 251954Z 09005KT 10SM FEW060 SCT200 01/M12 A3021 RMK AO2 SLP245 T00061117
KSLC 251740Z 2518/2624 35005KT P6SM SCT060 SCT200 
     FM251900 16007KT P6SM SCT060 SCT200 
     FM252200 17013KT P6SM SCT060 BKN120 
     FM260900 15017G24KT P6SM SCT050 BKN080
       
KSEA 251953Z 22015G22KT 10SM SCT020 BKN090 06/01 A2980 RMK AO2 SLP100 T00560011
KSEA 251738Z 2518/2624 21021G28KT P6SM VCSH BKN014 OVC020 
     TEMPO 2520/2523 27007KT -SHRA OVC014 
     FM252300 22019G25KT P6SM VCSH SCT020 BKN035 
     FM260200 22014KT P6SM SCT020 BKN040 
     FM260400 19010KT P6SM BKN020 
     FM260800 17006KT P6SM BKN020 OVC030 
     FM261800 17005KT P6SM BKN015
       
KSFO 251856Z 04006KT 10SM FEW200 11/04 A3036 RMK AO2 SLP280 T01110039 $
KSFO 251743Z 2518/2624 VRB04KT P6SM SKC 
     FM251900 27007KT P6SM SKC 
     FM252200 28015KT P6SM SKC 
     FM260300 27013KT P6SM SCT020 SCT150 
     FM260500 26010KT P6SM BKN020 
     FM261000 23009KT 5SM -RA BR OVC015 
     FM261600 30016KT P6SM -SHRA OVC018 
     FM262000 29019G24KT P6SM SCT100
       
KLAX 251953Z 09005KT 10SM CLR 18/M04 A3020 RMK AO2 SLP227 T01831044
KLAX 251741Z 2518/2624 00000KT P6SM FEW021 FEW300 
     FM252100 27012KT P6SM SKC 
     FM260400 VRB03KT P6SM SKC 
     FM261100 08005KT P6SM SKC 
     FM262000 26012KT P6SM BKN080
       
KSAN 251951Z 29010KT 10SM CLR 18/03 A3019 RMK AO2 SLP221 T01780028
KSAN 251726Z 2518/2624 VRB04KT P6SM SKC 
     FM252000 30010KT P6SM SKC 
     FM260200 VRB04KT P6SM FEW020 
     FM261900 23008KT P6SM SCT025 
     FM262300 27011KT P6SM BKN035
       
KLAS 251856Z 03004KT 10SM CLR 09/M12 A3029 RMK AO2 SLP259 T00941117
KLAS 251720Z 2518/2624 04008KT P6SM SKC 
     FM252100 08005KT P6SM SKC 
     FM260500 21006KT P6SM SKC 
     FM261900 19014G22KT P6SM BKN250
       
KPHX 251951Z VRB04KT 10SM CLR 15/M10 A3018 RMK AO2 SLP216 T01501100 $
KPHX 251725Z 2518/2624 VRB04KT P6SM SKC 
     FM252000 29004KT P6SM SKC 
     FM260600 10005KT P6SM SKC 
     FM262100 25004KT P6SM SKC
       
KSDF 251856Z 26007KT 10SM FEW035 BKN220 10/01 A3009 RMK AO2 SLP188 T01000006 $
KSDF 251720Z 2518/2624 26008KT P6SM BKN200 
     FM260300 VRB03KT P6SM SCT200
       
KIND 251954Z 25015G21KT 10SM FEW040 SCT250 09/M01 A3004 RMK AO2 SLP172 T00891006
KIND 251720Z 2518/2624 24016G21KT P6SM SCT025 BKN200 
     FM252300 25008KT P6SM FEW250 
     FM260200 26004KT P6SM FEW250 
     FM262300 20004KT P6SM SKC